sensor_id;sensor_type;location;lat;lon;timestamp;P1;durP1;ratioP1;P2;durP2;ratioP2
14169;SDS011;63889;50.596;8.690;2023-04-15T00:00:43;11.15;;;3.55;;
14169;SDS011;63889;50.596;8.690;2023-04-15T00:03:09;6.05;;;3.92;;
14169;SDS011;63889;50.596;8.690;2023-04-15T00:05:34;11.35;;;3.70;;
14169;SDS011;63889;50.596;8.690;2023-04-15T00:08:00;9.80;;;3.20;;
14169;SDS011;63889;50.596;8.690;2023-04-15T00:10:26;4.65;;;3.15;;
14169;SDS011;63889;50.596;8.690;2023-04-15T00:12:52;4.05;;;3.33;;
14169;SDS011;63889;50.596;8.690;2023-04-15T00:15:18;6.15;;;3.63;;
14169;SDS011;63889;50.596;8.690;2023-04-15T00:17:43;8.32;;;3.63;;
14169;SDS011;63889;50.596;8.690;2023-04-15T00:20:09;10.70;;;4.38;;
14169;SDS011;63889;50.596;8.690;2023-04-15T00:22:35;8.40;;;4.22;;
14169;SDS011;63889;50.596;8.690;2023-04-15T00:25:01;6.18;;;3.38;;
14169;SDS011;63889;50.596;8.690;2023-04-15T00:27:27;6.25;;;3.20;;
14169;SDS011;63889;50.596;8.690;2023-04-15T00:29:53;12.32;;;4.97;;
14169;SDS011;63889;50.596;8.690;2023-04-15T00:32:19;6.25;;;4.20;;
14169;SDS011;63889;50.596;8.690;2023-04-15T00:34:44;8.43;;;4.53;;
14169;SDS011;63889;50.596;8.690;2023-04-15T00:37:10;8.32;;;3.65;;
14169;SDS011;63889;50.596;8.690;2023-04-15T00:39:36;8.98;;;4.18;;
14169;SDS011;63889;50.596;8.690;2023-04-15T00:42:03;10.07;;;3.85;;
14169;SDS011;63889;50.596;8.690;2023-04-15T00:44:29;10.60;;;3.83;;
14169;SDS011;63889;50.596;8.690;2023-04-15T00:46:54;10.27;;;3.97;;
14169;SDS011;63889;50.596;8.690;2023-04-15T00:49:21;10.77;;;3.85;;
14169;SDS011;63889;50.596;8.690;2023-04-15T00:51:47;5.68;;;3.53;;
14169;SDS011;63889;50.596;8.690;2023-04-15T00:54:13;5.60;;;3.70;;
14169;SDS011;63889;50.596;8.690;2023-04-15T00:56:38;12.13;;;4.43;;
14169;SDS011;63889;50.596;8.690;2023-04-15T00:59:05;19.30;;;4.57;;
14169;SDS011;63889;50.596;8.690;2023-04-15T01:01:32;9.68;;;4.22;;
14169;SDS011;63889;50.596;8.690;2023-04-15T01:03:59;9.23;;;4.18;;
14169;SDS011;63889;50.596;8.690;2023-04-15T01:06:25;8.63;;;4.50;;
14169;SDS011;63889;50.596;8.690;2023-04-15T01:08:52;8.43;;;4.40;;
14169;SDS011;63889;50.596;8.690;2023-04-15T01:11:18;7.63;;;3.80;;
14169;SDS011;63889;50.596;8.690;2023-04-15T01:13:44;5.80;;;3.55;;
14169;SDS011;63889;50.596;8.690;2023-04-15T01:16:11;7.30;;;3.72;;
14169;SDS011;63889;50.596;8.690;2023-04-15T01:18:37;10.73;;;4.30;;
14169;SDS011;63889;50.596;8.690;2023-04-15T01:21:03;6.70;;;3.30;;
14169;SDS011;63889;50.596;8.690;2023-04-15T01:23:30;7.60;;;3.65;;
14169;SDS011;63889;50.596;8.690;2023-04-15T01:25:56;15.52;;;3.90;;
14169;SDS011;63889;50.596;8.690;2023-04-15T01:28:23;8.50;;;4.20;;
14169;SDS011;63889;50.596;8.690;2023-04-15T01:30:49;10.35;;;3.47;;
14169;SDS011;63889;50.596;8.690;2023-04-15T01:33:15;5.85;;;3.75;;
14169;SDS011;63889;50.596;8.690;2023-04-15T01:35:40;8.88;;;3.60;;
14169;SDS011;63889;50.596;8.690;2023-04-15T01:38:08;10.70;;;3.90;;
14169;SDS011;63889;50.596;8.690;2023-04-15T01:40:35;9.27;;;4.32;;
14169;SDS011;63889;50.596;8.690;2023-04-15T01:43:01;8.95;;;4.20;;
14169;SDS011;63889;50.596;8.690;2023-04-15T01:45:27;6.28;;;4.07;;
14169;SDS011;63889;50.596;8.690;2023-04-15T01:47:53;8.07;;;4.25;;
14169;SDS011;63889;50.596;8.690;2023-04-15T01:50:19;7.20;;;4.03;;
14169;SDS011;63889;50.596;8.690;2023-04-15T01:52:45;8.90;;;4.05;;
14169;SDS011;63889;50.596;8.690;2023-04-15T01:55:12;6.65;;;4.25;;
14169;SDS011;63889;50.596;8.690;2023-04-15T01:57:38;7.55;;;4.38;;
14169;SDS011;63889;50.596;8.690;2023-04-15T02:00:04;6.80;;;4.25;;
14169;SDS011;63889;50.596;8.690;2023-04-15T02:02:31;11.52;;;4.10;;
14169;SDS011;63889;50.596;8.690;2023-04-15T02:04:57;6.22;;;4.57;;
14169;SDS011;63889;50.596;8.690;2023-04-15T02:07:23;9.52;;;4.32;;
14169;SDS011;63889;50.596;8.690;2023-04-15T02:09:48;5.88;;;3.88;;
14169;SDS011;63889;50.596;8.690;2023-04-15T02:12:14;9.10;;;4.57;;
14169;SDS011;63889;50.596;8.690;2023-04-15T02:14:39;7.05;;;3.50;;
14169;SDS011;63889;50.596;8.690;2023-04-15T02:17:05;8.55;;;3.85;;
14169;SDS011;63889;50.596;8.690;2023-04-15T02:19:34;10.45;;;3.92;;
14169;SDS011;63889;50.596;8.690;2023-04-15T02:21:59;9.85;;;3.95;;
14169;SDS011;63889;50.596;8.690;2023-04-15T02:24:28;6.43;;;3.78;;
14169;SDS011;63889;50.596;8.690;2023-04-15T02:26:54;8.85;;;3.63;;
14169;SDS011;63889;50.596;8.690;2023-04-15T02:29:20;14.50;;;4.80;;
14169;SDS011;63889;50.596;8.690;2023-04-15T02:31:47;7.90;;;3.95;;
14169;SDS011;63889;50.596;8.690;2023-04-15T02:34:13;10.98;;;4.57;;
14169;SDS011;63889;50.596;8.690;2023-04-15T02:36:38;8.10;;;3.60;;
14169;SDS011;63889;50.596;8.690;2023-04-15T02:39:04;7.70;;;4.78;;
14169;SDS011;63889;50.596;8.690;2023-04-15T02:41:30;7.85;;;4.32;;
14169;SDS011;63889;50.596;8.690;2023-04-15T02:43:56;9.10;;;4.25;;
14169;SDS011;63889;50.596;8.690;2023-04-15T02:46:21;7.88;;;3.83;;
14169;SDS011;63889;50.596;8.690;2023-04-15T02:48:50;11.52;;;4.15;;
14169;SDS011;63889;50.596;8.690;2023-04-15T02:51:18;7.63;;;3.95;;
14169;SDS011;63889;50.596;8.690;2023-04-15T02:53:46;9.18;;;4.15;;
14169;SDS011;63889;50.596;8.690;2023-04-15T02:56:13;9.15;;;4.43;;
14169;SDS011;63889;50.596;8.690;2023-04-15T02:58:40;8.82;;;4.22;;
14169;SDS011;63889;50.596;8.690;2023-04-15T03:01:06;10.50;;;4.15;;
14169;SDS011;63889;50.596;8.690;2023-04-15T03:03:32;8.52;;;3.85;;
14169;SDS011;63889;50.596;8.690;2023-04-15T03:05:58;7.75;;;4.05;;
14169;SDS011;63889;50.596;8.690;2023-04-15T03:08:24;11.18;;;4.32;;
14169;SDS011;63889;50.596;8.690;2023-04-15T03:10:50;8.73;;;3.90;;
14169;SDS011;63889;50.596;8.690;2023-04-15T03:13:16;8.40;;;3.75;;
14169;SDS011;63889;50.596;8.690;2023-04-15T03:15:42;11.02;;;4.80;;
14169;SDS011;63889;50.596;8.690;2023-04-15T03:18:10;9.52;;;4.15;;
14169;SDS011;63889;50.596;8.690;2023-04-15T03:20:35;7.63;;;4.47;;
14169;SDS011;63889;50.596;8.690;2023-04-15T03:23:01;5.75;;;3.65;;
14169;SDS011;63889;50.596;8.690;2023-04-15T03:25:26;12.32;;;3.97;;
14169;SDS011;63889;50.596;8.690;2023-04-15T03:27:52;15.68;;;4.15;;
14169;SDS011;63889;50.596;8.690;2023-04-15T03:30:17;10.00;;;3.80;;
14169;SDS011;63889;50.596;8.690;2023-04-15T03:32:43;6.97;;;4.15;;
14169;SDS011;63889;50.596;8.690;2023-04-15T03:35:08;6.70;;;3.92;;
14169;SDS011;63889;50.596;8.690;2023-04-15T03:37:34;11.30;;;4.28;;
14169;SDS011;63889;50.596;8.690;2023-04-15T03:40:00;9.43;;;3.75;;
14169;SDS011;63889;50.596;8.690;2023-04-15T03:42:26;7.63;;;3.95;;
14169;SDS011;63889;50.596;8.690;2023-04-15T03:44:52;7.85;;;4.10;;
14169;SDS011;63889;50.596;8.690;2023-04-15T03:47:17;7.50;;;4.00;;
14169;SDS011;63889;50.596;8.690;2023-04-15T03:49:43;8.10;;;4.13;;
14169;SDS011;63889;50.596;8.690;2023-04-15T03:52:08;7.05;;;3.42;;
14169;SDS011;63889;50.596;8.690;2023-04-15T03:54:34;8.60;;;4.18;;
14169;SDS011;63889;50.596;8.690;2023-04-15T03:56:59;10.32;;;4.65;;
14169;SDS011;63889;50.596;8.690;2023-04-15T03:59:25;11.70;;;4.13;;
14169;SDS011;63889;50.596;8.690;2023-04-15T04:01:51;6.43;;;3.72;;
14169;SDS011;63889;50.596;8.690;2023-04-15T04:04:16;8.65;;;4.03;;
14169;SDS011;63889;50.596;8.690;2023-04-15T04:06:42;8.80;;;4.53;;
14169;SDS011;63889;50.596;8.690;2023-04-15T04:09:07;7.97;;;3.88;;
14169;SDS011;63889;50.596;8.690;2023-04-15T04:11:33;8.85;;;3.80;;
14169;SDS011;63889;50.596;8.690;2023-04-15T04:13:58;8.15;;;4.90;;
14169;SDS011;63889;50.596;8.690;2023-04-15T04:16:24;10.70;;;3.88;;
14169;SDS011;63889;50.596;8.690;2023-04-15T04:18:50;12.18;;;3.53;;
14169;SDS011;63889;50.596;8.690;2023-04-15T04:21:16;10.40;;;4.60;;
14169;SDS011;63889;50.596;8.690;2023-04-15T04:23:41;11.45;;;4.75;;
14169;SDS011;63889;50.596;8.690;2023-04-15T04:26:07;8.43;;;3.72;;
14169;SDS011;63889;50.596;8.690;2023-04-15T04:28:32;7.68;;;4.20;;
14169;SDS011;63889;50.596;8.690;2023-04-15T04:30:59;15.75;;;3.95;;
14169;SDS011;63889;50.596;8.690;2023-04-15T04:33:25;8.05;;;4.25;;
14169;SDS011;63889;50.596;8.690;2023-04-15T04:35:50;18.20;;;3.97;;
14169;SDS011;63889;50.596;8.690;2023-04-15T04:38:16;8.93;;;4.00;;
14169;SDS011;63889;50.596;8.690;2023-04-15T04:40:42;7.35;;;4.00;;
14169;SDS011;63889;50.596;8.690;2023-04-15T04:43:08;7.80;;;3.33;;
14169;SDS011;63889;50.596;8.690;2023-04-15T04:45:34;7.88;;;3.42;;
14169;SDS011;63889;50.596;8.690;2023-04-15T04:48:00;7.40;;;3.70;;
14169;SDS011;63889;50.596;8.690;2023-04-15T04:50:25;6.85;;;3.65;;
14169;SDS011;63889;50.596;8.690;2023-04-15T04:52:51;9.10;;;4.25;;
14169;SDS011;63889;50.596;8.690;2023-04-15T04:55:16;8.88;;;3.90;;
14169;SDS011;63889;50.596;8.690;2023-04-15T04:57:42;13.02;;;3.85;;
14169;SDS011;63889;50.596;8.690;2023-04-15T05:00:08;8.55;;;3.78;;
14169;SDS011;63889;50.596;8.690;2023-04-15T05:02:34;5.63;;;3.30;;
14169;SDS011;63889;50.596;8.690;2023-04-15T05:04:59;7.90;;;3.65;;
14169;SDS011;63889;50.596;8.690;2023-04-15T05:07:25;4.80;;;2.97;;
14169;SDS011;63889;50.596;8.690;2023-04-15T05:09:51;13.05;;;4.00;;
14169;SDS011;63889;50.596;8.690;2023-04-15T05:12:16;9.40;;;3.83;;
14169;SDS011;63889;50.596;8.690;2023-04-15T05:14:42;8.48;;;4.00;;
14169;SDS011;63889;50.596;8.690;2023-04-15T05:17:08;6.38;;;3.97;;
14169;SDS011;63889;50.596;8.690;2023-04-15T05:19:35;10.52;;;4.50;;
14169;SDS011;63889;50.596;8.690;2023-04-15T05:22:00;9.95;;;4.05;;
14169;SDS011;63889;50.596;8.690;2023-04-15T05:24:26;11.50;;;3.90;;
14169;SDS011;63889;50.596;8.690;2023-04-15T05:26:51;8.32;;;3.72;;
14169;SDS011;63889;50.596;8.690;2023-04-15T05:29:17;9.05;;;3.72;;
14169;SDS011;63889;50.596;8.690;2023-04-15T05:31:42;9.05;;;4.38;;
14169;SDS011;63889;50.596;8.690;2023-04-15T05:34:08;7.22;;;3.53;;
14169;SDS011;63889;50.596;8.690;2023-04-15T05:36:35;9.65;;;4.38;;
14169;SDS011;63889;50.596;8.690;2023-04-15T05:39:01;9.65;;;3.97;;
14169;SDS011;63889;50.596;8.690;2023-04-15T05:41:26;10.18;;;4.00;;
14169;SDS011;63889;50.596;8.690;2023-04-15T05:43:52;7.30;;;3.70;;
14169;SDS011;63889;50.596;8.690;2023-04-15T05:46:18;8.20;;;3.80;;
14169;SDS011;63889;50.596;8.690;2023-04-15T05:48:43;6.13;;;3.70;;
14169;SDS011;63889;50.596;8.690;2023-04-15T05:51:09;5.57;;;3.03;;
14169;SDS011;63889;50.596;8.690;2023-04-15T05:53:35;5.82;;;3.33;;
14169;SDS011;63889;50.596;8.690;2023-04-15T05:56:01;13.65;;;4.22;;
14169;SDS011;63889;50.596;8.690;2023-04-15T05:58:26;7.20;;;3.53;;
14169;SDS011;63889;50.596;8.690;2023-04-15T06:00:52;6.57;;;3.22;;
14169;SDS011;63889;50.596;8.690;2023-04-15T06:03:17;4.80;;;2.75;;
14169;SDS011;63889;50.596;8.690;2023-04-15T06:05:43;6.65;;;3.55;;
14169;SDS011;63889;50.596;8.690;2023-04-15T06:08:09;8.70;;;3.22;;
14169;SDS011;63889;50.596;8.690;2023-04-15T06:10:35;11.50;;;3.58;;
14169;SDS011;63889;50.596;8.690;2023-04-15T06:13:04;6.05;;;3.03;;
14169;SDS011;63889;50.596;8.690;2023-04-15T06:15:30;7.57;;;4.30;;
14169;SDS011;63889;50.596;8.690;2023-04-15T06:17:56;7.75;;;3.92;;
14169;SDS011;63889;50.596;8.690;2023-04-15T06:20:21;10.25;;;3.50;;
14169;SDS011;63889;50.596;8.690;2023-04-15T06:22:48;14.02;;;4.88;;
14169;SDS011;63889;50.596;8.690;2023-04-15T06:25:13;13.02;;;6.07;;
14169;SDS011;63889;50.596;8.690;2023-04-15T06:27:39;17.00;;;6.45;;
14169;SDS011;63889;50.596;8.690;2023-04-15T06:30:05;9.75;;;4.38;;
14169;SDS011;63889;50.596;8.690;2023-04-15T06:32:32;6.80;;;3.65;;
14169;SDS011;63889;50.596;8.690;2023-04-15T06:34:57;7.03;;;3.95;;
14169;SDS011;63889;50.596;8.690;2023-04-15T06:37:23;6.25;;;3.75;;
14169;SDS011;63889;50.596;8.690;2023-04-15T06:39:48;9.98;;;3.63;;
14169;SDS011;63889;50.596;8.690;2023-04-15T06:42:14;10.05;;;3.83;;
14169;SDS011;63889;50.596;8.690;2023-04-15T06:44:40;8.07;;;3.70;;
14169;SDS011;63889;50.596;8.690;2023-04-15T06:47:06;6.70;;;4.00;;
14169;SDS011;63889;50.596;8.690;2023-04-15T06:49:32;4.97;;;3.80;;
14169;SDS011;63889;50.596;8.690;2023-04-15T06:51:59;5.78;;;3.53;;
14169;SDS011;63889;50.596;8.690;2023-04-15T06:54:24;5.88;;;3.78;;
14169;SDS011;63889;50.596;8.690;2023-04-15T06:56:50;8.88;;;4.13;;
14169;SDS011;63889;50.596;8.690;2023-04-15T06:59:16;6.65;;;4.00;;
14169;SDS011;63889;50.596;8.690;2023-04-15T07:01:42;8.90;;;4.38;;
14169;SDS011;63889;50.596;8.690;2023-04-15T07:04:07;8.48;;;4.15;;
14169;SDS011;63889;50.596;8.690;2023-04-15T07:06:33;7.60;;;3.63;;
14169;SDS011;63889;50.596;8.690;2023-04-15T07:08:59;9.05;;;4.57;;
14169;SDS011;63889;50.596;8.690;2023-04-15T07:11:25;8.40;;;4.28;;
14169;SDS011;63889;50.596;8.690;2023-04-15T07:13:51;6.57;;;4.55;;
14169;SDS011;63889;50.596;8.690;2023-04-15T07:16:17;12.15;;;3.92;;
14169;SDS011;63889;50.596;8.690;2023-04-15T07:18:43;6.90;;;4.05;;
14169;SDS011;63889;50.596;8.690;2023-04-15T07:21:08;9.15;;;4.38;;
14169;SDS011;63889;50.596;8.690;2023-04-15T07:23:34;8.90;;;4.25;;
14169;SDS011;63889;50.596;8.690;2023-04-15T07:26:00;7.60;;;4.50;;
14169;SDS011;63889;50.596;8.690;2023-04-15T07:28:25;7.13;;;4.18;;
14169;SDS011;63889;50.596;8.690;2023-04-15T07:30:51;6.97;;;4.85;;
14169;SDS011;63889;50.596;8.690;2023-04-15T07:33:17;7.55;;;4.30;;
14169;SDS011;63889;50.596;8.690;2023-04-15T07:35:42;11.25;;;4.68;;
14169;SDS011;63889;50.596;8.690;2023-04-15T07:38:09;9.70;;;4.75;;
14169;SDS011;63889;50.596;8.690;2023-04-15T07:40:36;9.25;;;4.88;;
14169;SDS011;63889;50.596;8.690;2023-04-15T07:43:03;15.30;;;6.03;;
14169;SDS011;63889;50.596;8.690;2023-04-15T07:45:29;9.38;;;5.85;;
14169;SDS011;63889;50.596;8.690;2023-04-15T07:47:55;13.77;;;6.53;;
14169;SDS011;63889;50.596;8.690;2023-04-15T07:50:21;7.28;;;4.80;;
14169;SDS011;63889;50.596;8.690;2023-04-15T07:52:47;9.07;;;5.07;;
14169;SDS011;63889;50.596;8.690;2023-04-15T07:55:13;12.48;;;6.28;;
14169;SDS011;63889;50.596;8.690;2023-04-15T07:57:41;10.65;;;5.18;;
14169;SDS011;63889;50.596;8.690;2023-04-15T08:00:07;10.05;;;4.75;;
14169;SDS011;63889;50.596;8.690;2023-04-15T08:02:33;12.63;;;6.43;;
14169;SDS011;63889;50.596;8.690;2023-04-15T08:04:59;14.73;;;5.72;;
14169;SDS011;63889;50.596;8.690;2023-04-15T08:07:27;11.00;;;5.68;;
14169;SDS011;63889;50.596;8.690;2023-04-15T08:09:52;8.73;;;4.95;;
14169;SDS011;63889;50.596;8.690;2023-04-15T08:12:18;11.38;;;5.03;;
14169;SDS011;63889;50.596;8.690;2023-04-15T08:14:43;8.77;;;4.13;;
14169;SDS011;63889;50.596;8.690;2023-04-15T08:17:09;10.07;;;5.18;;
14169;SDS011;63889;50.596;8.690;2023-04-15T08:19:35;9.50;;;4.68;;
14169;SDS011;63889;50.596;8.690;2023-04-15T08:22:01;10.43;;;5.43;;
14169;SDS011;63889;50.596;8.690;2023-04-15T08:24:27;7.35;;;4.35;;
14169;SDS011;63889;50.596;8.690;2023-04-15T08:26:53;10.30;;;4.53;;
14169;SDS011;63889;50.596;8.690;2023-04-15T08:29:19;9.10;;;4.35;;
14169;SDS011;63889;50.596;8.690;2023-04-15T08:31:44;5.75;;;3.25;;
14169;SDS011;63889;50.596;8.690;2023-04-15T08:34:11;8.90;;;3.80;;
14169;SDS011;63889;50.596;8.690;2023-04-15T08:36:37;6.82;;;3.95;;
14169;SDS011;63889;50.596;8.690;2023-04-15T08:39:02;9.63;;;4.18;;
14169;SDS011;63889;50.596;8.690;2023-04-15T08:41:29;9.57;;;3.88;;
14169;SDS011;63889;50.596;8.690;2023-04-15T08:44:04;10.82;;;4.22;;
14169;SDS011;63889;50.596;8.690;2023-04-15T08:46:31;5.15;;;3.33;;
14169;SDS011;63889;50.596;8.690;2023-04-15T08:49:02;6.75;;;3.75;;
14169;SDS011;63889;50.596;8.690;2023-04-15T08:51:29;7.75;;;4.40;;
14169;SDS011;63889;50.596;8.690;2023-04-15T08:53:54;5.30;;;3.80;;
14169;SDS011;63889;50.596;8.690;2023-04-15T08:56:23;4.72;;;3.92;;
14169;SDS011;63889;50.596;8.690;2023-04-15T08:58:50;4.50;;;3.00;;
14169;SDS011;63889;50.596;8.690;2023-04-15T09:01:16;6.95;;;3.83;;
14169;SDS011;63889;50.596;8.690;2023-04-15T09:03:42;9.20;;;3.35;;
14169;SDS011;63889;50.596;8.690;2023-04-15T09:06:08;6.88;;;3.63;;
14169;SDS011;63889;50.596;8.690;2023-04-15T09:08:33;6.82;;;3.30;;
14169;SDS011;63889;50.596;8.690;2023-04-15T09:11:00;5.60;;;2.97;;
14169;SDS011;63889;50.596;8.690;2023-04-15T09:13:28;5.60;;;3.30;;
14169;SDS011;63889;50.596;8.690;2023-04-15T09:15:54;5.15;;;3.38;;
14169;SDS011;63889;50.596;8.690;2023-04-15T09:18:32;5.10;;;2.80;;
14169;SDS011;63889;50.596;8.690;2023-04-15T09:21:20;3.75;;;2.63;;
14169;SDS011;63889;50.596;8.690;2023-04-15T09:23:58;4.60;;;3.05;;
14169;SDS011;63889;50.596;8.690;2023-04-15T09:26:31;6.47;;;2.97;;
14169;SDS011;63889;50.596;8.690;2023-04-15T09:29:10;5.72;;;3.42;;
14169;SDS011;63889;50.596;8.690;2023-04-15T09:31:38;6.97;;;3.08;;
14169;SDS011;63889;50.596;8.690;2023-04-15T09:34:05;4.63;;;2.95;;
14169;SDS011;63889;50.596;8.690;2023-04-15T09:39:12;4.70;;;2.88;;
14169;SDS011;63889;50.596;8.690;2023-04-15T09:41:38;7.32;;;2.53;;
14169;SDS011;63889;50.596;8.690;2023-04-15T09:44:04;4.38;;;2.20;;
14169;SDS011;63889;50.596;8.690;2023-04-15T09:46:40;4.47;;;2.17;;
14169;SDS011;63889;50.596;8.690;2023-04-15T09:49:08;4.47;;;2.50;;
14169;SDS011;63889;50.596;8.690;2023-04-15T09:51:35;5.15;;;2.28;;
14169;SDS011;63889;50.596;8.690;2023-04-15T09:54:01;3.85;;;2.40;;
14169;SDS011;63889;50.596;8.690;2023-04-15T09:56:34;4.22;;;2.42;;
14169;SDS011;63889;50.596;8.690;2023-04-15T09:59:02;4.55;;;2.80;;
14169;SDS011;63889;50.596;8.690;2023-04-15T10:01:29;5.68;;;2.85;;
14169;SDS011;63889;50.596;8.690;2023-04-15T10:03:55;7.00;;;3.40;;
14169;SDS011;63889;50.596;8.690;2023-04-15T10:06:25;3.72;;;2.38;;
14169;SDS011;63889;50.596;8.690;2023-04-15T10:08:51;4.68;;;2.05;;
14169;SDS011;63889;50.596;8.690;2023-04-15T10:11:17;3.35;;;2.00;;
14169;SDS011;63889;50.596;8.690;2023-04-15T10:13:44;4.07;;;2.30;;
14169;SDS011;63889;50.596;8.690;2023-04-15T10:16:13;5.47;;;2.85;;
14169;SDS011;63889;50.596;8.690;2023-04-15T10:18:41;4.70;;;2.22;;
14169;SDS011;63889;50.596;8.690;2023-04-15T10:21:15;2.72;;;1.83;;
14169;SDS011;63889;50.596;8.690;2023-04-15T10:23:42;4.00;;;2.03;;
14169;SDS011;63889;50.596;8.690;2023-04-15T10:26:09;4.85;;;2.17;;
14169;SDS011;63889;50.596;8.690;2023-04-15T10:28:36;5.05;;;2.17;;
14169;SDS011;63889;50.596;8.690;2023-04-15T10:31:02;3.70;;;2.40;;
14169;SDS011;63889;50.596;8.690;2023-04-15T10:33:29;3.72;;;2.30;;
14169;SDS011;63889;50.596;8.690;2023-04-15T10:35:56;3.47;;;2.58;;
14169;SDS011;63889;50.596;8.690;2023-04-15T10:38:32;2.97;;;2.20;;
14169;SDS011;63889;50.596;8.690;2023-04-15T10:41:18;3.58;;;2.17;;
14169;SDS011;63889;50.596;8.690;2023-04-15T10:43:53;2.97;;;1.98;;
14169;SDS011;63889;50.596;8.690;2023-04-15T10:46:21;3.70;;;2.33;;
14169;SDS011;63889;50.596;8.690;2023-04-15T10:48:49;2.97;;;2.08;;
14169;SDS011;63889;50.596;8.690;2023-04-15T10:51:25;3.20;;;1.88;;
14169;SDS011;63889;50.596;8.690;2023-04-15T10:53:55;4.90;;;2.10;;
14169;SDS011;63889;50.596;8.690;2023-04-15T10:56:22;3.92;;;2.20;;
14169;SDS011;63889;50.596;8.690;2023-04-15T10:58:47;4.03;;;2.45;;
14169;SDS011;63889;50.596;8.690;2023-04-15T11:01:13;3.30;;;2.35;;
14169;SDS011;63889;50.596;8.690;2023-04-15T11:03:39;4.35;;;2.55;;
14169;SDS011;63889;50.596;8.690;2023-04-15T11:06:07;4.75;;;2.78;;
14169;SDS011;63889;50.596;8.690;2023-04-15T11:08:52;4.00;;;2.55;;
14169;SDS011;63889;50.596;8.690;2023-04-15T11:11:18;3.67;;;2.60;;
14169;SDS011;63889;50.596;8.690;2023-04-15T11:13:47;5.22;;;2.90;;
14169;SDS011;63889;50.596;8.690;2023-04-15T11:16:14;4.30;;;2.70;;
14169;SDS011;63889;50.596;8.690;2023-04-15T11:18:39;5.38;;;2.65;;
14169;SDS011;63889;50.596;8.690;2023-04-15T11:21:05;5.43;;;2.97;;
14169;SDS011;63889;50.596;8.690;2023-04-15T11:23:41;4.80;;;2.63;;
14169;SDS011;63889;50.596;8.690;2023-04-15T11:26:10;5.20;;;2.95;;
14169;SDS011;63889;50.596;8.690;2023-04-15T11:28:37;3.88;;;2.25;;
14169;SDS011;63889;50.596;8.690;2023-04-15T11:31:15;6.82;;;2.60;;
14169;SDS011;63889;50.596;8.690;2023-04-15T11:33:55;4.93;;;3.10;;
14169;SDS011;63889;50.596;8.690;2023-04-15T11:36:25;3.65;;;2.00;;
14169;SDS011;63889;50.596;8.690;2023-04-15T11:38:53;6.72;;;2.42;;
14169;SDS011;63889;50.596;8.690;2023-04-15T11:41:19;4.20;;;2.13;;
14169;SDS011;63889;50.596;8.690;2023-04-15T11:43:46;6.57;;;2.20;;
14169;SDS011;63889;50.596;8.690;2023-04-15T11:46:11;3.15;;;1.70;;
14169;SDS011;63889;50.596;8.690;2023-04-15T11:48:40;4.20;;;2.45;;
14169;SDS011;63889;50.596;8.690;2023-04-15T11:51:10;3.65;;;1.90;;
14169;SDS011;63889;50.596;8.690;2023-04-15T11:56:04;5.72;;;3.15;;
14169;SDS011;63889;50.596;8.690;2023-04-15T11:58:33;3.38;;;2.67;;
14169;SDS011;63889;50.596;8.690;2023-04-15T12:01:01;3.92;;;2.85;;
14169;SDS011;63889;50.596;8.690;2023-04-15T12:03:35;4.85;;;2.88;;
14169;SDS011;63889;50.596;8.690;2023-04-15T12:06:06;3.58;;;1.92;;
14169;SDS011;63889;50.596;8.690;2023-04-15T12:11:19;2.88;;;2.05;;
14169;SDS011;63889;50.596;8.690;2023-04-15T12:13:53;4.55;;;2.15;;
14169;SDS011;63889;50.596;8.690;2023-04-15T12:16:20;4.70;;;2.72;;
14169;SDS011;63889;50.596;8.690;2023-04-15T12:18:50;3.55;;;2.13;;
14169;SDS011;63889;50.596;8.690;2023-04-15T12:21:20;4.15;;;2.58;;
14169;SDS011;63889;50.596;8.690;2023-04-15T12:23:51;4.63;;;2.67;;
14169;SDS011;63889;50.596;8.690;2023-04-15T12:26:24;6.03;;;2.97;;
14169;SDS011;63889;50.596;8.690;2023-04-15T12:28:54;7.15;;;3.13;;
14169;SDS011;63889;50.596;8.690;2023-04-15T12:31:27;6.93;;;2.97;;
14169;SDS011;63889;50.596;8.690;2023-04-15T12:33:57;4.57;;;3.20;;
14169;SDS011;63889;50.596;8.690;2023-04-15T12:36:24;5.35;;;2.80;;
14169;SDS011;63889;50.596;8.690;2023-04-15T12:38:50;6.47;;;3.53;;
14169;SDS011;63889;50.596;8.690;2023-04-15T12:41:16;9.95;;;3.90;;
14169;SDS011;63889;50.596;8.690;2023-04-15T12:43:43;4.60;;;2.95;;
14169;SDS011;63889;50.596;8.690;2023-04-15T12:46:10;5.47;;;2.88;;
14169;SDS011;63889;50.596;8.690;2023-04-15T12:48:36;7.28;;;3.05;;
14169;SDS011;63889;50.596;8.690;2023-04-15T12:51:01;4.15;;;2.90;;
14169;SDS011;63889;50.596;8.690;2023-04-15T12:53:27;7.00;;;3.33;;
14169;SDS011;63889;50.596;8.690;2023-04-15T12:55:53;7.63;;;4.22;;
14169;SDS011;63889;50.596;8.690;2023-04-15T12:58:19;7.38;;;3.22;;
14169;SDS011;63889;50.596;8.690;2023-04-15T13:00:45;5.97;;;3.30;;
14169;SDS011;63889;50.596;8.690;2023-04-15T13:03:11;5.53;;;2.90;;
14169;SDS011;63889;50.596;8.690;2023-04-15T13:05:37;6.50;;;3.58;;
14169;SDS011;63889;50.596;8.690;2023-04-15T13:08:03;5.88;;;3.45;;
14169;SDS011;63889;50.596;8.690;2023-04-15T13:10:29;5.03;;;3.45;;
14169;SDS011;63889;50.596;8.690;2023-04-15T13:12:56;4.40;;;2.72;;
14169;SDS011;63889;50.596;8.690;2023-04-15T13:15:21;5.55;;;2.95;;
14169;SDS011;63889;50.596;8.690;2023-04-15T13:17:47;5.45;;;2.60;;
14169;SDS011;63889;50.596;8.690;2023-04-15T13:20:13;6.05;;;3.30;;
14169;SDS011;63889;50.596;8.690;2023-04-15T13:22:39;6.07;;;2.78;;
14169;SDS011;63889;50.596;8.690;2023-04-15T13:25:05;4.35;;;2.70;;
14169;SDS011;63889;50.596;8.690;2023-04-15T13:27:32;4.15;;;2.75;;
14169;SDS011;63889;50.596;8.690;2023-04-15T13:29:57;4.40;;;2.45;;
14169;SDS011;63889;50.596;8.690;2023-04-15T13:32:23;3.30;;;2.40;;
14169;SDS011;63889;50.596;8.690;2023-04-15T13:34:49;5.00;;;2.55;;
14169;SDS011;63889;50.596;8.690;2023-04-15T13:37:15;4.15;;;2.40;;
14169;SDS011;63889;50.596;8.690;2023-04-15T13:39:41;3.35;;;2.22;;
14169;SDS011;63889;50.596;8.690;2023-04-15T13:42:07;3.60;;;2.25;;
14169;SDS011;63889;50.596;8.690;2023-04-15T13:44:32;2.15;;;1.77;;
14169;SDS011;63889;50.596;8.690;2023-04-15T13:46:58;2.83;;;1.80;;
14169;SDS011;63889;50.596;8.690;2023-04-15T13:49:24;2.72;;;1.85;;
14169;SDS011;63889;50.596;8.690;2023-04-15T13:51:49;2.40;;;1.70;;
14169;SDS011;63889;50.596;8.690;2023-04-15T13:54:15;4.53;;;2.33;;
14169;SDS011;63889;50.596;8.690;2023-04-15T13:56:41;3.38;;;2.40;;
14169;SDS011;63889;50.596;8.690;2023-04-15T13:59:06;2.05;;;1.77;;
14169;SDS011;63889;50.596;8.690;2023-04-15T14:01:33;3.28;;;2.33;;
14169;SDS011;63889;50.596;8.690;2023-04-15T14:03:59;3.03;;;1.65;;
14169;SDS011;63889;50.596;8.690;2023-04-15T14:06:24;4.82;;;1.90;;
14169;SDS011;63889;50.596;8.690;2023-04-15T14:08:51;3.00;;;1.75;;
14169;SDS011;63889;50.596;8.690;2023-04-15T14:11:16;3.80;;;1.85;;
14169;SDS011;63889;50.596;8.690;2023-04-15T14:13:42;1.83;;;1.50;;
14169;SDS011;63889;50.596;8.690;2023-04-15T14:16:08;2.75;;;1.67;;
14169;SDS011;63889;50.596;8.690;2023-04-15T14:18:33;2.58;;;1.40;;
14169;SDS011;63889;50.596;8.690;2023-04-15T14:20:59;1.67;;;1.30;;
14169;SDS011;63889;50.596;8.690;2023-04-15T14:23:25;3.60;;;1.60;;
14169;SDS011;63889;50.596;8.690;2023-04-15T14:25:50;8.45;;;2.88;;
14169;SDS011;63889;50.596;8.690;2023-04-15T14:28:17;2.15;;;1.52;;
14169;SDS011;63889;50.596;8.690;2023-04-15T14:30:42;2.88;;;1.60;;
14169;SDS011;63889;50.596;8.690;2023-04-15T14:33:08;1.67;;;1.30;;
14169;SDS011;63889;50.596;8.690;2023-04-15T14:35:33;2.30;;;1.67;;
14169;SDS011;63889;50.596;8.690;2023-04-15T14:37:59;2.67;;;1.60;;
14169;SDS011;63889;50.596;8.690;2023-04-15T14:40:25;2.00;;;1.40;;
14169;SDS011;63889;50.596;8.690;2023-04-15T14:42:50;2.17;;;1.60;;
14169;SDS011;63889;50.596;8.690;2023-04-15T14:45:16;3.50;;;1.90;;
14169;SDS011;63889;50.596;8.690;2023-04-15T14:47:41;3.75;;;1.60;;
14169;SDS011;63889;50.596;8.690;2023-04-15T14:50:07;3.00;;;2.00;;